Fort Worth - NOAA's Hourly Summary for Tuesday, July 10, 2018
Hour Temp
(f)
RH
(%)
Solar Rad.
(MJ/m2)
Rainfall
(in)
Wind
(mph)
7/10/2018 12:00 AM 79 75 0 0 3.78
7/10/2018 1:00 AM 78 77 0 0 4.2
7/10/2018 2:00 AM 78 78 0 0 2.5
7/10/2018 3:00 AM 77 76 0 0 4.34
7/10/2018 4:00 AM 76 78 0 0 4.66
7/10/2018 5:00 AM 76 80 0 0 2.73
7/10/2018 6:00 AM 76 80 0.01 0 2
7/10/2018 7:00 AM 77 78 0.19 0 3.67
7/10/2018 8:00 AM 78 76 0.43 0 3.38
7/10/2018 9:00 AM 81 70 1.25 0 3.57
7/10/2018 10:00 AM 86 60 2.16 0 6.15
7/10/2018 11:00 AM 88 55 1.67 0 4.12
7/10/2018 12:00 PM 90 49 2.41 0 2.89
7/10/2018 1:00 PM 93 45 2.71 0 5.13
7/10/2018 2:00 PM 80 72 0.38 0.11 11.14
7/10/2018 3:00 PM 79 78 0.18 0 3.81
7/10/2018 4:00 PM 77 80 0.21 0.01 4.43
7/10/2018 5:00 PM 79 81 0.5 0 2.82
7/10/2018 6:00 PM 82 73 0.66 0 3.46
7/10/2018 7:00 PM 84 68 0.57 0 2.98
7/10/2018 8:00 PM 83 70 0.08 0 2.53
7/10/2018 9:00 PM 82 70 0 0 3.13
7/10/2018 10:00 PM 82 67 0 0 3.15
7/10/2018 11:00 PM 81 70 0 0 1.44
Data Summary 80 71 13.41 0.12 3.83